sensor_id;sensor_type;location;lat;lon;timestamp;temperature;humidity
27940;DHT22;15275;51.716;14.324;2023-01-28T00:01:23;4.20;81.90
27940;DHT22;15275;51.716;14.324;2023-01-28T00:03:49;4.10;81.90
27940;DHT22;15275;51.716;14.324;2023-01-28T00:06:16;4.10;81.80
27940;DHT22;15275;51.716;14.324;2023-01-28T00:08:43;4.00;81.60
27940;DHT22;15275;51.716;14.324;2023-01-28T00:11:11;4.00;81.80
27940;DHT22;15275;51.716;14.324;2023-01-28T00:13:37;3.90;81.70
27940;DHT22;15275;51.716;14.324;2023-01-28T00:16:05;3.90;81.50
27940;DHT22;15275;51.716;14.324;2023-01-28T00:18:33;3.80;81.80
27940;DHT22;15275;51.716;14.324;2023-01-28T00:21:08;3.80;81.30
27940;DHT22;15275;51.716;14.324;2023-01-28T00:23:37;3.70;82.00
27940;DHT22;15275;51.716;14.324;2023-01-28T00:26:10;3.70;81.70
27940;DHT22;15275;51.716;14.324;2023-01-28T00:28:39;3.70;82.20
27940;DHT22;15275;51.716;14.324;2023-01-28T00:31:11;3.70;82.10
27940;DHT22;15275;51.716;14.324;2023-01-28T00:33:42;3.70;82.20
27940;DHT22;15275;51.716;14.324;2023-01-28T00:36:09;3.70;82.40
27940;DHT22;15275;51.716;14.324;2023-01-28T00:38:35;3.70;82.70
27940;DHT22;15275;51.716;14.324;2023-01-28T00:41:13;3.70;82.20
27940;DHT22;15275;51.716;14.324;2023-01-28T00:43:41;3.70;82.30
27940;DHT22;15275;51.716;14.324;2023-01-28T00:46:09;3.70;82.40
27940;DHT22;15275;51.716;14.324;2023-01-28T00:48:37;3.70;82.40
27940;DHT22;15275;51.716;14.324;2023-01-28T00:51:04;3.70;82.20
27940;DHT22;15275;51.716;14.324;2023-01-28T00:53:30;3.60;82.10
27940;DHT22;15275;51.716;14.324;2023-01-28T00:55:56;3.60;82.20
27940;DHT22;15275;51.716;14.324;2023-01-28T00:58:22;3.60;82.40
27940;DHT22;15275;51.716;14.324;2023-01-28T01:00:49;3.60;82.40
27940;DHT22;15275;51.716;14.324;2023-01-28T01:03:16;3.60;82.40
27940;DHT22;15275;51.716;14.324;2023-01-28T01:05:42;3.60;82.20
27940;DHT22;15275;51.716;14.324;2023-01-28T01:08:08;3.60;82.10
27940;DHT22;15275;51.716;14.324;2023-01-28T01:10:35;3.60;81.70
27940;DHT22;15275;51.716;14.324;2023-01-28T01:13:01;3.50;81.70
27940;DHT22;15275;51.716;14.324;2023-01-28T01:15:27;3.50;81.50
27940;DHT22;15275;51.716;14.324;2023-01-28T01:17:53;3.40;81.60
27940;DHT22;15275;51.716;14.324;2023-01-28T01:20:25;3.40;81.80
27940;DHT22;15275;51.716;14.324;2023-01-28T01:22:52;3.30;81.80
27940;DHT22;15275;51.716;14.324;2023-01-28T01:25:18;3.30;81.70
27940;DHT22;15275;51.716;14.324;2023-01-28T01:27:47;3.20;81.70
27940;DHT22;15275;51.716;14.324;2023-01-28T01:30:15;3.20;81.80
27940;DHT22;15275;51.716;14.324;2023-01-28T01:32:41;3.10;81.80
27940;DHT22;15275;51.716;14.324;2023-01-28T01:35:08;3.10;81.80
27940;DHT22;15275;51.716;14.324;2023-01-28T01:37:35;3.10;81.90
27940;DHT22;15275;51.716;14.324;2023-01-28T01:40:01;3.00;81.90
27940;DHT22;15275;51.716;14.324;2023-01-28T01:42:32;3.00;81.90
27940;DHT22;15275;51.716;14.324;2023-01-28T01:45:07;2.90;82.00
27940;DHT22;15275;51.716;14.324;2023-01-28T01:48:03;2.90;82.00
27940;DHT22;15275;51.716;14.324;2023-01-28T01:50:42;2.80;81.80
27940;DHT22;15275;51.716;14.324;2023-01-28T01:53:17;2.80;82.10
27940;DHT22;15275;51.716;14.324;2023-01-28T01:55:47;2.80;82.00
27940;DHT22;15275;51.716;14.324;2023-01-28T01:58:17;2.80;82.20
27940;DHT22;15275;51.716;14.324;2023-01-28T02:00:45;2.70;82.10
27940;DHT22;15275;51.716;14.324;2023-01-28T02:03:11;2.70;82.10
27940;DHT22;15275;51.716;14.324;2023-01-28T02:05:38;2.70;82.10
27940;DHT22;15275;51.716;14.324;2023-01-28T02:08:04;2.60;82.30
27940;DHT22;15275;51.716;14.324;2023-01-28T02:10:54;2.60;82.30
27940;DHT22;15275;51.716;14.324;2023-01-28T02:13:26;2.50;82.20
27940;DHT22;15275;51.716;14.324;2023-01-28T02:15:55;2.50;82.20
27940;DHT22;15275;51.716;14.324;2023-01-28T02:18:22;2.50;82.30
27940;DHT22;15275;51.716;14.324;2023-01-28T02:27:36;2.40;81.70
27940;DHT22;15275;51.716;14.324;2023-01-28T02:30:27;2.30;81.90
27940;DHT22;15275;51.716;14.324;2023-01-28T02:33:04;2.30;82.50
27940;DHT22;15275;51.716;14.324;2023-01-28T02:36:00;2.30;82.40
27940;DHT22;15275;51.716;14.324;2023-01-28T02:38:32;2.30;82.30
27940;DHT22;15275;51.716;14.324;2023-01-28T02:41:07;2.30;81.70
27940;DHT22;15275;51.716;14.324;2023-01-28T02:43:41;2.30;82.50
27940;DHT22;15275;51.716;14.324;2023-01-28T02:49:09;2.20;83.00
27940;DHT22;15275;51.716;14.324;2023-01-28T02:55:00;2.20;83.50
27940;DHT22;15275;51.716;14.324;2023-01-28T02:57:48;2.30;83.80
27940;DHT22;15275;51.716;14.324;2023-01-28T03:00:39;2.30;84.10
27940;DHT22;15275;51.716;14.324;2023-01-28T03:06:07;2.40;83.90
27940;DHT22;15275;51.716;14.324;2023-01-28T03:11:35;2.50;84.10
27940;DHT22;15275;51.716;14.324;2023-01-28T03:14:23;2.50;84.10
27940;DHT22;15275;51.716;14.324;2023-01-28T03:17:13;2.60;84.10
27940;DHT22;15275;51.716;14.324;2023-01-28T03:20:00;2.70;84.10
27940;DHT22;15275;51.716;14.324;2023-01-28T03:22:46;2.70;84.00
27940;DHT22;15275;51.716;14.324;2023-01-28T03:25:34;2.70;83.90
27940;DHT22;15275;51.716;14.324;2023-01-28T03:28:21;2.80;83.70
27940;DHT22;15275;51.716;14.324;2023-01-28T03:31:11;2.80;83.60
27940;DHT22;15275;51.716;14.324;2023-01-28T03:33:58;2.80;83.60
27940;DHT22;15275;51.716;14.324;2023-01-28T03:36:45;2.80;83.60
27940;DHT22;15275;51.716;14.324;2023-01-28T03:39:16;2.90;83.80
27940;DHT22;15275;51.716;14.324;2023-01-28T03:42:05;2.90;83.80
27940;DHT22;15275;51.716;14.324;2023-01-28T03:44:33;2.90;83.20
27940;DHT22;15275;51.716;14.324;2023-01-28T03:47:23;2.90;83.20
27940;DHT22;15275;51.716;14.324;2023-01-28T03:49:52;2.90;83.00
27940;DHT22;15275;51.716;14.324;2023-01-28T03:52:27;2.90;82.70
27940;DHT22;15275;51.716;14.324;2023-01-28T03:54:55;2.90;82.70
27940;DHT22;15275;51.716;14.324;2023-01-28T03:57:26;2.80;82.50
27940;DHT22;15275;51.716;14.324;2023-01-28T03:59:53;2.80;82.60
27940;DHT22;15275;51.716;14.324;2023-01-28T04:02:20;2.80;82.40
27940;DHT22;15275;51.716;14.324;2023-01-28T04:04:47;2.80;82.40
27940;DHT22;15275;51.716;14.324;2023-01-28T04:07:14;2.80;82.50
27940;DHT22;15275;51.716;14.324;2023-01-28T04:09:41;2.70;82.40
27940;DHT22;15275;51.716;14.324;2023-01-28T04:12:08;2.70;82.30
27940;DHT22;15275;51.716;14.324;2023-01-28T04:14:35;2.70;82.60
27940;DHT22;15275;51.716;14.324;2023-01-28T04:17:01;2.70;82.90
27940;DHT22;15275;51.716;14.324;2023-01-28T04:19:27;2.70;82.60
27940;DHT22;15275;51.716;14.324;2023-01-28T04:21:53;2.70;82.90
27940;DHT22;15275;51.716;14.324;2023-01-28T04:24:20;2.70;82.60
27940;DHT22;15275;51.716;14.324;2023-01-28T04:26:47;2.70;82.50
27940;DHT22;15275;51.716;14.324;2023-01-28T04:29:13;2.70;82.20
27940;DHT22;15275;51.716;14.324;2023-01-28T04:31:39;2.70;82.40
27940;DHT22;15275;51.716;14.324;2023-01-28T04:34:05;2.70;82.70
27940;DHT22;15275;51.716;14.324;2023-01-28T04:36:31;2.70;82.30
27940;DHT22;15275;51.716;14.324;2023-01-28T04:38:57;2.70;82.30
27940;DHT22;15275;51.716;14.324;2023-01-28T04:41:23;2.70;82.10
27940;DHT22;15275;51.716;14.324;2023-01-28T04:43:48;2.70;82.00
27940;DHT22;15275;51.716;14.324;2023-01-28T04:46:15;2.70;82.20
27940;DHT22;15275;51.716;14.324;2023-01-28T04:48:41;2.70;82.10
27940;DHT22;15275;51.716;14.324;2023-01-28T04:51:07;2.70;81.80
27940;DHT22;15275;51.716;14.324;2023-01-28T04:53:33;2.70;81.90
27940;DHT22;15275;51.716;14.324;2023-01-28T04:55:59;2.70;81.70
27940;DHT22;15275;51.716;14.324;2023-01-28T04:58:25;2.70;81.70
27940;DHT22;15275;51.716;14.324;2023-01-28T05:00:56;2.70;81.70
27940;DHT22;15275;51.716;14.324;2023-01-28T05:03:23;2.80;81.80
27940;DHT22;15275;51.716;14.324;2023-01-28T05:05:49;2.80;81.60
27940;DHT22;15275;51.716;14.324;2023-01-28T05:08:16;2.80;81.80
27940;DHT22;15275;51.716;14.324;2023-01-28T05:10:42;2.80;81.70
27940;DHT22;15275;51.716;14.324;2023-01-28T05:13:08;2.80;81.60
27940;DHT22;15275;51.716;14.324;2023-01-28T05:15:34;2.80;81.40
27940;DHT22;15275;51.716;14.324;2023-01-28T05:18:00;2.80;81.60
27940;DHT22;15275;51.716;14.324;2023-01-28T05:20:26;2.80;81.60
27940;DHT22;15275;51.716;14.324;2023-01-28T05:22:52;2.80;81.80
27940;DHT22;15275;51.716;14.324;2023-01-28T05:25:18;2.80;81.80
27940;DHT22;15275;51.716;14.324;2023-01-28T05:27:49;2.80;81.90
27940;DHT22;15275;51.716;14.324;2023-01-28T05:30:17;2.80;82.20
27940;DHT22;15275;51.716;14.324;2023-01-28T05:32:45;2.90;81.80
27940;DHT22;15275;51.716;14.324;2023-01-28T05:35:11;2.90;81.80
27940;DHT22;15275;51.716;14.324;2023-01-28T05:37:37;2.90;82.10
27940;DHT22;15275;51.716;14.324;2023-01-28T05:40:03;2.90;82.10
27940;DHT22;15275;51.716;14.324;2023-01-28T05:42:29;2.90;82.40
27940;DHT22;15275;51.716;14.324;2023-01-28T05:44:55;2.90;82.10
27940;DHT22;15275;51.716;14.324;2023-01-28T05:47:21;2.90;82.00
27940;DHT22;15275;51.716;14.324;2023-01-28T05:49:47;2.90;82.00
27940;DHT22;15275;51.716;14.324;2023-01-28T05:52:13;2.90;82.00
27940;DHT22;15275;51.716;14.324;2023-01-28T05:54:38;2.90;82.10
27940;DHT22;15275;51.716;14.324;2023-01-28T05:57:04;3.00;81.70
27940;DHT22;15275;51.716;14.324;2023-01-28T05:59:30;3.00;81.60
27940;DHT22;15275;51.716;14.324;2023-01-28T06:01:56;3.00;81.90
27940;DHT22;15275;51.716;14.324;2023-01-28T06:04:22;3.00;81.90
27940;DHT22;15275;51.716;14.324;2023-01-28T06:06:48;3.00;81.70
27940;DHT22;15275;51.716;14.324;2023-01-28T06:09:14;3.00;81.40
27940;DHT22;15275;51.716;14.324;2023-01-28T06:11:39;3.00;81.90
27940;DHT22;15275;51.716;14.324;2023-01-28T06:14:05;3.00;81.10
27940;DHT22;15275;51.716;14.324;2023-01-28T06:16:31;3.00;82.00
27940;DHT22;15275;51.716;14.324;2023-01-28T06:18:57;2.90;81.00
27940;DHT22;15275;51.716;14.324;2023-01-28T06:21:23;3.00;80.90
27940;DHT22;15275;51.716;14.324;2023-01-28T06:23:49;2.90;81.40
27940;DHT22;15275;51.716;14.324;2023-01-28T06:26:14;2.90;80.80
27940;DHT22;15275;51.716;14.324;2023-01-28T06:28:40;2.90;80.80
27940;DHT22;15275;51.716;14.324;2023-01-28T06:31:06;2.90;80.80
27940;DHT22;15275;51.716;14.324;2023-01-28T06:33:32;3.00;81.50
27940;DHT22;15275;51.716;14.324;2023-01-28T06:35:58;3.00;81.40
27940;DHT22;15275;51.716;14.324;2023-01-28T06:38:27;3.00;80.60
27940;DHT22;15275;51.716;14.324;2023-01-28T06:40:53;3.00;80.10
27940;DHT22;15275;51.716;14.324;2023-01-28T06:43:21;3.00;80.00
27940;DHT22;15275;51.716;14.324;2023-01-28T06:45:58;2.90;80.00
27940;DHT22;15275;51.716;14.324;2023-01-28T06:48:25;3.00;80.30
27940;DHT22;15275;51.716;14.324;2023-01-28T06:50:52;3.00;80.10
27940;DHT22;15275;51.716;14.324;2023-01-28T06:53:18;3.00;77.50
27940;DHT22;15275;51.716;14.324;2023-01-28T06:55:44;3.00;79.50
27940;DHT22;15275;51.716;14.324;2023-01-28T06:58:10;3.00;79.40
27940;DHT22;15275;51.716;14.324;2023-01-28T07:00:36;3.00;79.30
27940;DHT22;15275;51.716;14.324;2023-01-28T07:03:03;3.00;79.00
27940;DHT22;15275;51.716;14.324;2023-01-28T07:05:29;3.00;78.80
27940;DHT22;15275;51.716;14.324;2023-01-28T07:07:55;3.00;79.10
27940;DHT22;15275;51.716;14.324;2023-01-28T07:10:20;3.00;79.20
27940;DHT22;15275;51.716;14.324;2023-01-28T07:12:46;3.00;79.50
27940;DHT22;15275;51.716;14.324;2023-01-28T07:15:12;3.00;79.40
27940;DHT22;15275;51.716;14.324;2023-01-28T07:17:43;3.00;79.20
27940;DHT22;15275;51.716;14.324;2023-01-28T07:20:11;3.00;79.60
27940;DHT22;15275;51.716;14.324;2023-01-28T07:22:43;3.00;79.80
27940;DHT22;15275;51.716;14.324;2023-01-28T07:25:09;3.10;80.00
27940;DHT22;15275;51.716;14.324;2023-01-28T07:27:36;3.10;79.70
27940;DHT22;15275;51.716;14.324;2023-01-28T07:30:03;3.10;79.50
27940;DHT22;15275;51.716;14.324;2023-01-28T07:32:29;3.20;79.20
27940;DHT22;15275;51.716;14.324;2023-01-28T07:34:55;3.20;79.50
27940;DHT22;15275;51.716;14.324;2023-01-28T07:37:21;3.20;79.30
27940;DHT22;15275;51.716;14.324;2023-01-28T07:39:47;3.20;79.20
27940;DHT22;15275;51.716;14.324;2023-01-28T07:42:13;3.20;79.50
27940;DHT22;15275;51.716;14.324;2023-01-28T07:44:39;3.20;79.30
27940;DHT22;15275;51.716;14.324;2023-01-28T07:47:05;3.30;79.10
27940;DHT22;15275;51.716;14.324;2023-01-28T07:49:32;3.30;79.20
27940;DHT22;15275;51.716;14.324;2023-01-28T07:51:59;3.30;79.30
27940;DHT22;15275;51.716;14.324;2023-01-28T07:54:25;3.30;79.10
27940;DHT22;15275;51.716;14.324;2023-01-28T07:56:50;3.30;79.20
27940;DHT22;15275;51.716;14.324;2023-01-28T07:59:16;3.40;79.20
27940;DHT22;15275;51.716;14.324;2023-01-28T08:01:42;3.40;79.30
27940;DHT22;15275;51.716;14.324;2023-01-28T08:04:08;3.40;79.40
27940;DHT22;15275;51.716;14.324;2023-01-28T08:06:33;3.50;79.50
27940;DHT22;15275;51.716;14.324;2023-01-28T08:09:03;3.50;79.60
27940;DHT22;15275;51.716;14.324;2023-01-28T08:11:31;3.50;79.40
27940;DHT22;15275;51.716;14.324;2023-01-28T08:13:57;3.50;79.30
27940;DHT22;15275;51.716;14.324;2023-01-28T08:16:23;3.60;79.20
27940;DHT22;15275;51.716;14.324;2023-01-28T08:18:49;3.60;79.30
27940;DHT22;15275;51.716;14.324;2023-01-28T08:21:15;3.60;79.40
27940;DHT22;15275;51.716;14.324;2023-01-28T08:23:40;3.60;79.40
27940;DHT22;15275;51.716;14.324;2023-01-28T08:26:06;3.70;78.90
27940;DHT22;15275;51.716;14.324;2023-01-28T08:28:32;3.70;79.00
27940;DHT22;15275;51.716;14.324;2023-01-28T08:31:01;3.70;79.10
27940;DHT22;15275;51.716;14.324;2023-01-28T08:33:27;3.70;79.40
27940;DHT22;15275;51.716;14.324;2023-01-28T08:35:53;3.70;79.40
27940;DHT22;15275;51.716;14.324;2023-01-28T08:38:19;3.80;79.40
27940;DHT22;15275;51.716;14.324;2023-01-28T08:40:46;3.80;79.30
27940;DHT22;15275;51.716;14.324;2023-01-28T08:43:15;3.80;79.00
27940;DHT22;15275;51.716;14.324;2023-01-28T08:45:41;3.80;79.10
27940;DHT22;15275;51.716;14.324;2023-01-28T08:48:10;3.90;79.00
27940;DHT22;15275;51.716;14.324;2023-01-28T08:50:39;3.90;79.10
27940;DHT22;15275;51.716;14.324;2023-01-28T08:53:09;3.90;79.20
27940;DHT22;15275;51.716;14.324;2023-01-28T08:55:36;4.00;79.30
27940;DHT22;15275;51.716;14.324;2023-01-28T08:58:06;4.00;79.10
27940;DHT22;15275;51.716;14.324;2023-01-28T09:00:35;4.00;79.50
27940;DHT22;15275;51.716;14.324;2023-01-28T09:03:02;4.10;79.20
27940;DHT22;15275;51.716;14.324;2023-01-28T09:05:28;4.10;78.90
27940;DHT22;15275;51.716;14.324;2023-01-28T09:07:54;4.10;79.10
27940;DHT22;15275;51.716;14.324;2023-01-28T09:10:20;4.10;79.20
27940;DHT22;15275;51.716;14.324;2023-01-28T09:12:46;4.10;79.20
27940;DHT22;15275;51.716;14.324;2023-01-28T09:15:12;4.20;79.40
27940;DHT22;15275;51.716;14.324;2023-01-28T09:17:38;4.20;79.40
27940;DHT22;15275;51.716;14.324;2023-01-28T09:20:05;4.30;79.50
27940;DHT22;15275;51.716;14.324;2023-01-28T09:22:32;4.30;79.30
27940;DHT22;15275;51.716;14.324;2023-01-28T09:24:58;4.40;79.20
27940;DHT22;15275;51.716;14.324;2023-01-28T09:27:24;4.40;79.20
27940;DHT22;15275;51.716;14.324;2023-01-28T09:29:50;4.50;79.20
27940;DHT22;15275;51.716;14.324;2023-01-28T09:32:16;4.50;79.30
27940;DHT22;15275;51.716;14.324;2023-01-28T09:34:41;4.50;79.10
27940;DHT22;15275;51.716;14.324;2023-01-28T09:37:09;4.60;78.90
27940;DHT22;15275;51.716;14.324;2023-01-28T09:39:36;4.60;78.90
27940;DHT22;15275;51.716;14.324;2023-01-28T09:47:48;4.80;78.50
27940;DHT22;15275;51.716;14.324;2023-01-28T09:50:33;4.80;78.90
27940;DHT22;15275;51.716;14.324;2023-01-28T09:53:11;4.80;78.60
27940;DHT22;15275;51.716;14.324;2023-01-28T09:55:55;4.90;78.60
27940;DHT22;15275;51.716;14.324;2023-01-28T09:58:22;4.90;78.60
27940;DHT22;15275;51.716;14.324;2023-01-28T10:00:53;4.80;78.20
27940;DHT22;15275;51.716;14.324;2023-01-28T10:06:43;4.80;77.70
27940;DHT22;15275;51.716;14.324;2023-01-28T10:09:44;4.80;78.10
27940;DHT22;15275;51.716;14.324;2023-01-28T10:18:10;4.90;77.80
27940;DHT22;15275;51.716;14.324;2023-01-28T10:26:22;4.90;79.10
27940;DHT22;15275;51.716;14.324;2023-01-28T10:28:54;4.90;79.50
27940;DHT22;15275;51.716;14.324;2023-01-28T10:31:23;4.90;79.10
27940;DHT22;15275;51.716;14.324;2023-01-28T10:33:55;4.90;78.60
27940;DHT22;15275;51.716;14.324;2023-01-28T10:36:21;4.90;79.10
27940;DHT22;15275;51.716;14.324;2023-01-28T10:38:47;4.90;79.20
27940;DHT22;15275;51.716;14.324;2023-01-28T10:41:20;4.80;79.30
27940;DHT22;15275;51.716;14.324;2023-01-28T10:43:48;4.80;79.50
27940;DHT22;15275;51.716;14.324;2023-01-28T10:46:31;4.80;79.40
27940;DHT22;15275;51.716;14.324;2023-01-28T10:51:39;4.70;79.40
27940;DHT22;15275;51.716;14.324;2023-01-28T10:54:26;4.60;79.40
27940;DHT22;15275;51.716;14.324;2023-01-28T10:57:13;4.60;78.30
27940;DHT22;15275;51.716;14.324;2023-01-28T10:59:41;4.60;78.30
27940;DHT22;15275;51.716;14.324;2023-01-28T11:02:32;4.50;79.70
27940;DHT22;15275;51.716;14.324;2023-01-28T11:05:14;4.50;78.70
27940;DHT22;15275;51.716;14.324;2023-01-28T11:07:45;4.50;79.50
27940;DHT22;15275;51.716;14.324;2023-01-28T11:10:42;4.50;79.60
27940;DHT22;15275;51.716;14.324;2023-01-28T11:20:55;4.60;79.50
27940;DHT22;15275;51.716;14.324;2023-01-28T11:23:24;4.60;79.30
27940;DHT22;15275;51.716;14.324;2023-01-28T11:26:18;4.60;77.50
27940;DHT22;15275;51.716;14.324;2023-01-28T11:28:46;4.70;78.30
27940;DHT22;15275;51.716;14.324;2023-01-28T11:31:16;4.70;79.50
27940;DHT22;15275;51.716;14.324;2023-01-28T11:36:23;4.80;79.60
27940;DHT22;15275;51.716;14.324;2023-01-28T11:41:35;4.80;79.10
27940;DHT22;15275;51.716;14.324;2023-01-28T11:44:23;4.80;79.10
27940;DHT22;15275;51.716;14.324;2023-01-28T11:47:11;4.90;78.60
27940;DHT22;15275;51.716;14.324;2023-01-28T11:53:07;4.90;78.60
27940;DHT22;15275;51.716;14.324;2023-01-28T11:55:56;4.90;78.30
27940;DHT22;15275;51.716;14.324;2023-01-28T11:59:07;4.80;79.20
27940;DHT22;15275;51.716;14.324;2023-01-28T12:30:42;5.30;78.70
27940;DHT22;15275;51.716;14.324;2023-01-28T12:33:47;5.30;77.40
27940;DHT22;15275;51.716;14.324;2023-01-28T12:42:06;5.30;78.90
27940;DHT22;15275;51.716;14.324;2023-01-28T12:44:52;5.30;78.90
27940;DHT22;15275;51.716;14.324;2023-01-28T12:47:27;5.30;78.50
27940;DHT22;15275;51.716;14.324;2023-01-28T12:50:09;5.30;78.70
27940;DHT22;15275;51.716;14.324;2023-01-28T12:52:45;5.30;78.70
27940;DHT22;15275;51.716;14.324;2023-01-28T12:58:34;5.30;78.20
27940;DHT22;15275;51.716;14.324;2023-01-28T13:01:20;5.30;78.40
27940;DHT22;15275;51.716;14.324;2023-01-28T13:06:32;5.30;78.60
27940;DHT22;15275;51.716;14.324;2023-01-28T13:09:02;5.30;78.50
27940;DHT22;15275;51.716;14.324;2023-01-28T13:11:36;5.30;78.20
27940;DHT22;15275;51.716;14.324;2023-01-28T13:14:03;5.30;78.20
27940;DHT22;15275;51.716;14.324;2023-01-28T13:16:30;5.20;78.20
27940;DHT22;15275;51.716;14.324;2023-01-28T13:21:45;5.30;78.10
27940;DHT22;15275;51.716;14.324;2023-01-28T13:26:46;5.20;78.20
27940;DHT22;15275;51.716;14.324;2023-01-28T13:31:51;5.20;78.40
27940;DHT22;15275;51.716;14.324;2023-01-28T13:37:20;5.20;77.40
27940;DHT22;15275;51.716;14.324;2023-01-28T13:42:34;5.20;77.70
27940;DHT22;15275;51.716;14.324;2023-01-28T13:47:46;5.20;77.50
27940;DHT22;15275;51.716;14.324;2023-01-28T13:50:22;5.20;78.20
27940;DHT22;15275;51.716;14.324;2023-01-28T13:52:57;5.20;78.20
27940;DHT22;15275;51.716;14.324;2023-01-28T13:55:38;5.20;77.70
27940;DHT22;15275;51.716;14.324;2023-01-28T14:06:59;5.10;78.10
27940;DHT22;15275;51.716;14.324;2023-01-28T14:18:41;5.10;76.70
27940;DHT22;15275;51.716;14.324;2023-01-28T14:21:20;5.10;77.90
27940;DHT22;15275;51.716;14.324;2023-01-28T14:23:52;5.10;77.70
27940;DHT22;15275;51.716;14.324;2023-01-28T14:32:14;5.10;78.20
27940;DHT22;15275;51.716;14.324;2023-01-28T14:34:42;5.10;78.00
27940;DHT22;15275;51.716;14.324;2023-01-28T14:37:14;5.10;78.10
27940;DHT22;15275;51.716;14.324;2023-01-28T14:39:59;5.10;78.10
27940;DHT22;15275;51.716;14.324;2023-01-28T14:42:40;5.10;77.50
27940;DHT22;15275;51.716;14.324;2023-01-28T15:02:01;5.00;78.10
27940;DHT22;15275;51.716;14.324;2023-01-28T15:04:32;5.00;78.20
27940;DHT22;15275;51.716;14.324;2023-01-28T15:07:24;5.00;78.20
27940;DHT22;15275;51.716;14.324;2023-01-28T15:10:05;5.00;77.60
27940;DHT22;15275;51.716;14.324;2023-01-28T15:12:41;4.90;77.90
27940;DHT22;15275;51.716;14.324;2023-01-28T15:15:35;4.90;78.50
27940;DHT22;15275;51.716;14.324;2023-01-28T15:20:43;4.90;78.20
27940;DHT22;15275;51.716;14.324;2023-01-28T15:23:17;4.90;78.20
27940;DHT22;15275;51.716;14.324;2023-01-28T15:25:44;4.90;78.30
27940;DHT22;15275;51.716;14.324;2023-01-28T15:28:19;4.80;78.40
27940;DHT22;15275;51.716;14.324;2023-01-28T15:30:49;4.80;78.40
27940;DHT22;15275;51.716;14.324;2023-01-28T15:33:16;4.80;78.40
27940;DHT22;15275;51.716;14.324;2023-01-28T15:35:53;4.70;78.60
27940;DHT22;15275;51.716;14.324;2023-01-28T15:38:24;4.80;78.60
27940;DHT22;15275;51.716;14.324;2023-01-28T15:40:58;4.70;78.70
27940;DHT22;15275;51.716;14.324;2023-01-28T15:43:36;4.70;78.70
27940;DHT22;15275;51.716;14.324;2023-01-28T15:46:03;4.70;78.70
27940;DHT22;15275;51.716;14.324;2023-01-28T15:48:35;4.70;78.80
27940;DHT22;15275;51.716;14.324;2023-01-28T15:51:07;4.70;78.90
27940;DHT22;15275;51.716;14.324;2023-01-28T15:53:41;4.70;78.90
27940;DHT22;15275;51.716;14.324;2023-01-28T15:56:11;4.70;78.70
27940;DHT22;15275;51.716;14.324;2023-01-28T15:58:39;4.70;78.70
27940;DHT22;15275;51.716;14.324;2023-01-28T16:03:38;4.70;78.70
27940;DHT22;15275;51.716;14.324;2023-01-28T16:08:41;4.70;78.80
27940;DHT22;15275;51.716;14.324;2023-01-28T16:11:32;4.70;78.70
27940;DHT22;15275;51.716;14.324;2023-01-28T16:14:06;4.70;78.20
27940;DHT22;15275;51.716;14.324;2023-01-28T16:16:36;4.70;78.70
27940;DHT22;15275;51.716;14.324;2023-01-28T16:19:05;4.70;78.80
27940;DHT22;15275;51.716;14.324;2023-01-28T16:21:37;4.70;78.90
27940;DHT22;15275;51.716;14.324;2023-01-28T16:27:19;4.70;78.60
27940;DHT22;15275;51.716;14.324;2023-01-28T16:29:49;4.70;77.90
27940;DHT22;15275;51.716;14.324;2023-01-28T16:32:36;4.60;78.80
27940;DHT22;15275;51.716;14.324;2023-01-28T16:35:13;4.60;78.10
27940;DHT22;15275;51.716;14.324;2023-01-28T16:37:40;4.60;78.80
27940;DHT22;15275;51.716;14.324;2023-01-28T16:40:07;4.60;78.70
27940;DHT22;15275;51.716;14.324;2023-01-28T16:42:34;4.60;78.80
27940;DHT22;15275;51.716;14.324;2023-01-28T16:44:59;4.60;78.80
27940;DHT22;15275;51.716;14.324;2023-01-28T16:47:25;4.60;78.90
27940;DHT22;15275;51.716;14.324;2023-01-28T16:49:51;4.60;78.90
27940;DHT22;15275;51.716;14.324;2023-01-28T16:52:17;4.60;78.70
27940;DHT22;15275;51.716;14.324;2023-01-28T16:54:43;4.60;78.80
27940;DHT22;15275;51.716;14.324;2023-01-28T16:57:17;4.60;78.70
27940;DHT22;15275;51.716;14.324;2023-01-28T16:59:45;4.60;78.70
27940;DHT22;15275;51.716;14.324;2023-01-28T17:02:12;4.50;78.60
27940;DHT22;15275;51.716;14.324;2023-01-28T17:04:38;4.50;78.60
27940;DHT22;15275;51.716;14.324;2023-01-28T17:07:05;4.50;78.70
27940;DHT22;15275;51.716;14.324;2023-01-28T17:09:31;4.50;78.90
27940;DHT22;15275;51.716;14.324;2023-01-28T17:11:57;4.50;78.80
27940;DHT22;15275;51.716;14.324;2023-01-28T17:14:23;4.50;78.80
27940;DHT22;15275;51.716;14.324;2023-01-28T17:16:49;4.50;78.90
27940;DHT22;15275;51.716;14.324;2023-01-28T17:19:16;4.50;78.80
27940;DHT22;15275;51.716;14.324;2023-01-28T17:21:42;4.50;78.80
27940;DHT22;15275;51.716;14.324;2023-01-28T17:24:08;4.50;78.80
27940;DHT22;15275;51.716;14.324;2023-01-28T17:26:34;4.40;78.70
27940;DHT22;15275;51.716;14.324;2023-01-28T17:29:05;4.40;78.70
27940;DHT22;15275;51.716;14.324;2023-01-28T17:31:32;4.40;78.70
27940;DHT22;15275;51.716;14.324;2023-01-28T17:33:59;4.40;78.70
27940;DHT22;15275;51.716;14.324;2023-01-28T17:36:27;4.40;78.70
27940;DHT22;15275;51.716;14.324;2023-01-28T17:38:53;4.40;78.70
27940;DHT22;15275;51.716;14.324;2023-01-28T17:41:19;4.40;78.70
27940;DHT22;15275;51.716;14.324;2023-01-28T17:43:50;4.40;78.70
27940;DHT22;15275;51.716;14.324;2023-01-28T17:46:16;4.40;79.00
27940;DHT22;15275;51.716;14.324;2023-01-28T17:48:43;4.40;78.70
27940;DHT22;15275;51.716;14.324;2023-01-28T17:51:11;4.40;78.70
27940;DHT22;15275;51.716;14.324;2023-01-28T17:53:38;4.40;78.60
27940;DHT22;15275;51.716;14.324;2023-01-28T17:56:04;4.40;78.60
27940;DHT22;15275;51.716;14.324;2023-01-28T17:58:31;4.40;78.50
27940;DHT22;15275;51.716;14.324;2023-01-28T18:00:56;4.40;78.50
27940;DHT22;15275;51.716;14.324;2023-01-28T18:03:22;4.40;78.50
27940;DHT22;15275;51.716;14.324;2023-01-28T18:05:58;4.40;78.50
27940;DHT22;15275;51.716;14.324;2023-01-28T18:08:24;4.40;78.50
27940;DHT22;15275;51.716;14.324;2023-01-28T18:10:50;4.40;78.60
27940;DHT22;15275;51.716;14.324;2023-01-28T18:13:16;4.40;78.40
27940;DHT22;15275;51.716;14.324;2023-01-28T18:15:42;4.30;78.30
27940;DHT22;15275;51.716;14.324;2023-01-28T18:18:08;4.30;77.90
27940;DHT22;15275;51.716;14.324;2023-01-28T18:20:34;4.30;78.10
27940;DHT22;15275;51.716;14.324;2023-01-28T18:23:00;4.20;78.20
27940;DHT22;15275;51.716;14.324;2023-01-28T18:25:26;4.20;78.20
27940;DHT22;15275;51.716;14.324;2023-01-28T18:27:53;4.20;78.50
27940;DHT22;15275;51.716;14.324;2023-01-28T18:30:19;4.20;78.40
27940;DHT22;15275;51.716;14.324;2023-01-28T18:32:45;4.10;78.40
27940;DHT22;15275;51.716;14.324;2023-01-28T18:35:11;4.10;78.40
27940;DHT22;15275;51.716;14.324;2023-01-28T18:37:37;4.10;78.30